الصفحة الرئيسية
METAR-TAF:

METAR-TAF

مطار :

Manado, إندونيسيا

دائرة عرض: 01-32N, خط طول: 124-55E, ارتفاع: 80 متر

مراقبة الطقس الحالي

تاريخ ووقت الإصدار 25 دقيقة قبل الساعة 02:30UTC
ريح 3 عقدة من الشمال الشرقي, الاتجاه يتراوح بين الشمال و الجنوب الشرقي
درجة الحرارة 31°درجة مئوية
الرطوبة 63%
ضغط 1011 hPa
الرؤية 10 كم أو أكثر
غيوم قليلة على ارتفاع 2200 قدم

METAR: WAMM 040230Z 05003KT 360V130 9999 FEW022 31/23 Q1011 NOSIG

زمن: 09:55 (02:55 UTC)

توقعات

تاريخ ووقت الإصدار 3ساعات و 55 دقيقة قبل الساعة 23:00UTC
التوقعات صالحة من04 الساعة 00 UTC إلى 05 الساعة 06 UTC
ريح 5 عقدة من الجنوب/الجنوب الشرقي
الرؤية 10 كم أو أكثر
غيوم قليلة على ارتفاع 2200 قدم
نظرية الاحتمالات 40% :
مؤقت
من 04 الساعة 04 UTC إلى 04 الساعة 08 UTC
الرؤية: 5000 متر
غيوم مفككة على ارتفاع 2000 قدم
مطر
أصبح
من 04 الساعة 09 UTC إلى 04 الساعة 11 UTC
ريح 3 عقدةمن اتجاهات متغيرة

TAF: WAMM 032300Z 0400/0506 15005KT 9999 FEW022 PROB40 TEMPO 0404/0408 5000 RA BKN020 BECMG 0409/0411 VRB03KT

أرصاد الطقس والتوقعات من أكثر من 4000 مطار (تقارير الطقس للمطار METAR والتنبؤ بالطقس بالمطارTAF).

المحطات المتاحة هي النقط الصفراء والحمراء على الخريطة.

حرك المؤشر فوق النقطة لمعرفة اسم المحطة.

ثم انقر لمعرفة أرصاد وتوقعات الطقس.

لتغيير الخارطة: اضغط على الأزرار الخضراء مع رمز الصليب الأسود للتكبير. على الزر الأخضر مع شرطة للتصغير، أو على الأسهم الخضراء للخرائط المجاورة.


METAR-TAF: